Time;durP1;ratioP1;P1;durP2;ratioP2;P2;SDS_P1;SDS_P2;PMS_P1;PMS_P2;Temp;Humidity;BMP_temperature;BMP_pressure;BME280_temperature;BME280_humidity;BME280_pressure;Samples;Min_cycle;Max_cycle;Signal;HPM_P1;HPM_P2
2023/04/03 00:02:17;;;;;;;18.80;14.10;;;;;;;1.80;87.59;99253.73;216716;1303;22597;-79
2023/04/03 00:07:47;;;;;;;24.50;18.30;;;;;;;1.75;87.46;99258.27;216851;1304;22628;-79
2023/04/03 00:13:26;;;;;;;23.90;17.70;;;;;;;1.70;87.54;99258.44;216668;1289;24288;-80
2023/04/03 00:18:41;;;;;;;27.60;19.70;;;;;;;1.67;87.87;99258.67;216746;1306;22683;-79
2023/04/03 00:24:36;;;;;;;26.80;19.80;;;;;;;1.66;87.84;99258.45;216652;1302;22556;-80
2023/04/03 00:29:38;;;;;;;28.50;21.10;;;;;;;1.65;87.84;99259.73;217696;1296;23579;-79
2023/04/03 00:34:45;;;;;;;28.50;20.50;;;;;;;1.65;87.76;99264.09;217844;1302;24294;-80
2023/04/03 00:39:48;;;;;;;27.80;20.10;;;;;;;1.63;88.13;99259.23;217990;1296;24167;-79
2023/04/03 00:44:58;;;;;;;27.30;20.60;;;;;;;1.63;88.05;99260.60;217649;1299;24388;-80
2023/04/03 00:50:04;;;;;;;30.00;20.40;;;;;;;1.62;88.18;99264.02;217822;1298;24269;-79
2023/04/03 00:55:20;;;;;;;28.50;19.60;;;;;;;1.62;88.22;99260.52;217544;1289;22657;-79
2023/04/03 01:00:24;;;;;;;29.50;20.60;;;;;;;1.63;88.04;99253.86;217912;1299;22587;-79
2023/04/03 01:05:35;;;;;;;26.60;19.70;;;;;;;1.63;87.97;99260.80;217611;1301;25194;-79
2023/04/03 01:10:40;;;;;;;28.50;20.40;;;;;;;1.63;87.99;99264.25;217662;1299;22566;-79
2023/04/03 01:15:53;;;;;;;;;;;;;;;;;;;;;
2023/04/03 01:21:42;;;;;;;29.10;19.50;;;;;;;1.64;88.11;99266.80;217552;1301;22735;-79
2023/04/03 01:27:03;;;;;;;25.40;16.90;;;;;;;1.67;88.16;99266.55;217817;1302;22657;-79
2023/04/03 01:32:08;;;;;;;21.70;14.30;;;;;;;1.68;88.46;99272.03;217678;1296;25542;-78
2023/04/03 01:37:19;;;;;;;;;;;;;;;1.67;88.01;99274.84;217720;1302;22527;-80
2023/04/03 01:42:22;;;;;;;18.10;12.40;;;;;;;1.64;88.11;99274.23;217565;1302;22552;-80
2023/04/03 01:47:59;;;;;;;16.00;11.40;;;;;;;1.60;87.89;99283.41;217359;1302;24360;-79
2023/04/03 01:53:05;;;;;;;16.70;11.20;;;;;;;1.56;87.89;99285.44;217750;1299;22714;-79
2023/04/03 01:58:10;;;;;;;15.80;9.40;;;;;;;1.53;87.54;99288.09;217860;1299;22553;-79
2023/04/03 02:03:13;;;;;;;11.00;7.80;;;;;;;1.50;87.42;99290.76;217572;1299;22549;-79
2023/04/03 02:08:17;;;;;;;13.80;7.90;;;;;;;1.47;87.40;99292.98;217732;1296;22608;-79
2023/04/03 02:13:36;;;;;;;11.40;7.70;;;;;;;1.43;87.20;99297.58;217968;1302;22590;-80
2023/04/03 02:18:56;;;;;;;14.10;7.90;;;;;;;1.40;86.98;99297.44;217764;1302;22587;-79
2023/04/03 02:24:05;;;;;;;13.30;8.20;;;;;;;1.38;87.07;99299.20;217920;1279;22552;-79
2023/04/03 02:29:15;;;;;;;12.90;7.20;;;;;;;1.33;86.79;99293.45;217906;1302;25240;-80
2023/04/03 02:34:21;;;;;;;13.10;7.60;;;;;;;1.28;86.54;99299.09;217729;1297;22616;-79
2023/04/03 02:39:31;;;;;;;11.80;7.40;;;;;;;1.23;86.76;99303.30;217770;1302;22774;-79
2023/04/03 02:44:41;;;;;;;10.50;7.00;;;;;;;1.17;86.69;99302.49;217701;1299;22593;-79
2023/04/03 02:49:57;;;;;;;15.20;7.10;;;;;;;1.08;86.41;99302.68;217742;1302;22733;-79
2023/04/03 02:55:01;;;;;;;11.70;6.10;;;;;;;0.93;86.00;99310.86;217889;1299;22559;-79
2023/04/03 03:00:14;;;;;;;12.10;6.00;;;;;;;0.77;85.92;99317.31;217769;1301;22549;-80
2023/04/03 03:05:18;;;;;;;11.00;5.80;;;;;;;0.59;85.92;99314.84;217807;1302;25402;-79
2023/04/03 03:10:36;;;;;;;9.10;6.00;;;;;;;0.41;85.89;99322.88;217617;1302;22578;-79
2023/04/03 03:15:54;;;;;;;11.10;6.40;;;;;;;0.21;86.13;99321.20;217693;1302;22587;-78
2023/04/03 03:21:05;;;;;;;9.90;6.30;;;;;;;0.09;86.50;99332.80;218102;1299;22546;-79
2023/04/03 03:26:10;;;;;;;11.50;6.60;;;;;;;-0.05;86.28;99331.41;218083;1299;24287;-79
2023/04/03 03:31:15;;;;;;;12.70;6.40;;;;;;;-0.17;86.52;99334.51;217913;1299;22688;-78
2023/04/03 03:36:23;;;;;;;9.60;5.80;;;;;;;-0.29;86.48;99342.06;217751;1302;22884;-78
2023/04/03 03:41:31;;;;;;;9.30;5.30;;;;;;;-0.41;86.20;99341.84;217572;1299;23583;-78
2023/04/03 03:46:35;;;;;;;10.30;5.20;;;;;;;-0.51;86.70;99342.38;217641;1298;25397;-79
2023/04/03 03:51:39;;;;;;;8.60;4.70;;;;;;;-0.60;86.36;99350.28;217609;1299;23796;-78
2023/04/03 03:56:45;;;;;;;8.50;4.60;;;;;;;-0.69;86.61;99345.16;217619;1299;23273;-78
2023/04/03 04:01:56;;;;;;;10.90;5.50;;;;;;;-0.77;86.57;99354.69;217869;1302;22552;-78
2023/04/03 04:07:00;;;;;;;13.10;6.00;;;;;;;-0.84;86.71;99359.00;217806;1296;25619;-79
2023/04/03 04:12:03;;;;;;;10.30;5.40;;;;;;;-0.91;86.73;99361.85;217578;1299;22575;-78
2023/04/03 04:17:07;;;;;;;16.00;6.60;;;;;;;-0.97;86.78;99359.33;217498;1302;22543;-77
2023/04/03 04:22:14;;;;;;;12.50;6.90;;;;;;;-1.02;86.62;99358.63;217496;1302;22553;-78
2023/04/03 04:27:21;;;;;;;14.90;7.10;;;;;;;-1.07;86.55;99368.61;217446;1299;22559;-78
2023/04/03 04:32:24;;;;;;;12.00;6.90;;;;;;;-1.12;86.58;99364.60;217688;1299;22674;-79
2023/04/03 04:37:27;;;;;;;13.60;6.40;;;;;;;-1.15;87.10;99377.27;217719;1296;25436;-78
2023/04/03 04:42:32;;;;;;;11.70;6.50;;;;;;;-1.18;86.77;99385.03;217470;1301;22549;-78
2023/04/03 04:47:35;;;;;;;12.20;7.40;;;;;;;-1.19;86.90;99393.23;217555;1302;22607;-78
2023/04/03 04:52:50;;;;;;;14.40;8.60;;;;;;;-1.19;87.06;99403.27;217690;1302;22588;-78
2023/04/03 04:57:53;;;;;;;18.50;8.00;;;;;;;-1.19;86.46;99404.46;217895;1280;22726;-78
2023/04/03 05:03:17;;;;;;;12.50;7.20;;;;;;;-1.20;86.54;99407.98;217931;1302;23524;-78
2023/04/03 05:08:26;;;;;;;14.30;8.40;;;;;;;-1.20;86.71;99412.55;217911;1302;22620;-78
2023/04/03 05:13:29;;;;;;;14.70;8.00;;;;;;;-1.21;86.78;99421.55;218073;1300;25663;-78
2023/04/03 05:18:32;;;;;;;13.00;8.50;;;;;;;-1.21;86.38;99419.67;217850;1298;22563;-79
2023/04/03 05:23:39;;;;;;;17.80;8.70;;;;;;;-1.21;86.53;99423.30;217490;1299;22615;-78
2023/04/03 05:28:43;;;;;;;14.30;8.60;;;;;;;-1.22;86.35;99427.86;217807;1296;24011;-78
2023/04/03 05:33:55;;;;;;;15.20;8.40;;;;;;;-1.23;86.38;99429.27;217541;1299;22588;-78
2023/04/03 05:38:58;;;;;;;15.70;8.40;;;;;;;-1.22;86.06;99434.27;217489;1301;22559;-77
2023/04/03 05:44:02;;;;;;;12.40;7.40;;;;;;;-1.22;86.19;99437.19;217818;1290;23435;-78
2023/04/03 05:49:05;;;;;;;13.10;8.30;;;;;;;-1.21;85.75;99435.91;217626;1299;24785;-80
2023/04/03 05:54:15;;;;;;;14.40;8.00;;;;;;;-1.17;85.97;99441.52;217727;1296;24949;-78
2023/04/03 05:59:22;;;;;;;12.50;8.30;;;;;;;-1.09;86.04;99443.05;218145;1296;22517;-78
2023/04/03 06:04:26;;;;;;;10.90;7.40;;;;;;;-0.94;86.03;99439.85;217511;1296;25504;-78
2023/04/03 06:09:36;;;;;;;10.70;7.00;;;;;;;-0.75;86.00;99444.83;218109;1295;22547;-79
2023/04/03 06:14:39;;;;;;;10.90;6.30;;;;;;;-0.53;85.47;99452.40;218439;1293;138519;-78
2023/04/03 06:19:58;;;;;;;10.50;5.80;;;;;;;-0.34;85.30;99458.68;217876;1296;138984;-81
2023/04/03 06:25:11;;;;;;;9.10;5.10;;;;;;;-0.22;84.40;99462.55;217490;1286;138971;-79
2023/04/03 06:30:23;;;;;;;7.00;4.70;;;;;;;-0.19;84.55;99471.02;217715;1293;138929;-78
2023/04/03 06:35:40;;;;;;;8.20;5.10;;;;;;;-0.14;84.37;99472.38;218193;1290;140258;-77
2023/04/03 06:40:45;;;;;;;7.30;4.80;;;;;;;-0.01;83.85;99477.92;218186;1293;24262;-79
2023/04/03 06:46:06;;;;;;;9.40;4.60;;;;;;;0.09;83.52;99483.52;218612;1286;138451;-78
2023/04/03 06:51:50;;;;;;;8.00;4.10;;;;;;;0.14;83.05;99477.27;218108;1298;138572;-79
2023/04/03 06:57:21;;;;;;;6.70;3.70;;;;;;;0.26;82.94;99484.89;217148;1295;138774;-78
2023/04/03 07:02:38;;;;;;;9.00;4.00;;;;;;;0.48;82.78;99495.48;216828;1294;138679;-79
2023/04/03 07:07:58;;;;;;;5.50;3.80;;;;;;;0.68;82.31;99504.32;216817;1306;138621;-78
2023/04/03 07:13:09;;;;;;;6.80;3.30;;;;;;;0.94;82.42;99505.94;216955;1299;138696;-78
2023/04/03 07:18:34;;;;;;;7.50;3.00;;;;;;;1.25;81.44;99505.77;217005;1283;138803;-78
2023/04/03 07:23:40;;;;;;;5.80;2.60;;;;;;;1.50;80.77;99512.76;218361;1290;139470;-76
2023/04/03 07:28:50;;;;;;;6.20;3.10;;;;;;;1.79;80.05;99522.80;218144;1296;23742;-77
2023/04/03 07:33:57;;;;;;;6.30;2.80;;;;;;;2.06;79.46;99523.64;217701;1289;138490;-76
2023/04/03 07:38:59;;;;;;;4.90;2.50;;;;;;;2.38;78.99;99514.98;217806;1301;138468;-76
2023/04/03 07:44:02;;;;;;;6.50;2.60;;;;;;;2.59;77.46;99522.52;218201;1299;138676;-77
2023/04/03 07:49:04;;;;;;;6.60;2.80;;;;;;;2.72;77.11;99520.44;218015;1283;139571;-76
2023/04/03 07:54:27;;;;;;;6.60;2.50;;;;;;;2.83;76.87;99513.17;217191;1305;138715;-76
2023/04/03 07:59:29;;;;;;;8.20;2.90;;;;;;;2.92;76.34;99519.13;217307;1287;138834;-79
2023/04/03 08:04:32;;;;;;;6.50;2.70;;;;;;;2.90;74.59;99520.63;217058;1289;22559;-79
2023/04/03 08:09:48;;;;;;;5.00;2.60;;;;;;;3.00;75.81;99522.26;217382;1302;138333;-78
2023/04/03 08:14:53;;;;;;;5.70;2.90;;;;;;;3.02;74.94;99524.02;217211;1305;138391;-80
2023/04/03 08:19:56;;;;;;;3.80;2.10;;;;;;;2.92;74.12;99520.17;217465;1296;138801;-78
2023/04/03 08:24:59;;;;;;;2.70;1.80;;;;;;;2.82;73.81;99526.27;217812;1292;138879;-80
2023/04/03 08:30:03;;;;;;;3.50;1.80;;;;;;;2.78;71.87;99531.65;217837;1283;139029;-80
2023/04/03 08:35:06;;;;;;;3.60;1.50;;;;;;;2.80;70.26;99526.49;218915;1298;22583;-80
2023/04/03 08:40:16;;;;;;;3.00;1.40;;;;;;;3.00;70.83;99526.95;218084;1299;138336;-79
2023/04/03 08:45:32;;;;;;;3.00;1.20;;;;;;;3.34;68.73;99528.55;218332;1298;138565;-80
2023/04/03 08:50:47;;;;;;;3.60;1.40;;;;;;;3.59;67.41;99526.73;218684;1301;138112;-80
2023/04/03 08:55:51;;;;;;;4.90;1.50;;;;;;;3.82;67.32;99526.38;219244;1299;137693;-79
2023/04/03 09:01:27;;;;;;;2.70;1.00;;;;;;;4.02;65.90;99529.90;219864;1299;138921;-80
2023/04/03 09:06:32;;;;;;;2.60;1.00;;;;;;;3.98;62.51;99540.40;218746;1299;138686;-79
2023/04/03 09:11:58;;;;;;;2.90;1.10;;;;;;;4.00;62.79;99529.45;218030;1296;137393;-79
2023/04/03 09:17:12;;;;;;;1.70;1.20;;;;;;;4.18;62.98;99522.84;218098;1292;23272;-78
2023/04/03 09:22:26;;;;;;;2.00;1.40;;;;;;;4.35;63.23;99528.30;218175;1289;138167;-82
2023/04/03 09:27:28;;;;;;;1.60;1.00;;;;;;;4.40;61.94;99533.52;218241;1297;138517;-81
2023/04/03 09:32:34;;;;;;;2.10;1.40;;;;;;;4.38;62.20;99529.17;218077;1299;139632;-81
2023/04/03 09:37:41;;;;;;;3.00;1.50;;;;;;;4.41;62.32;99527.54;218042;1298;138768;-80
2023/04/03 09:42:43;;;;;;;2.60;1.20;;;;;;;4.48;61.92;99538.61;218160;1286;138640;-78
2023/04/03 09:48:26;;;;;;;3.60;2.30;;;;;;;4.48;61.23;99541.75;218006;1300;139614;-80
2023/04/03 09:53:58;;;;;;;3.80;2.00;;;;;;;4.36;59.85;99550.75;218290;1296;139092;-84
2023/04/03 09:59:15;;;;;;;2.20;1.00;;;;;;;4.24;58.25;99548.44;217501;1290;24298;-78
2023/04/03 10:04:22;;;;;;;1.90;1.30;;;;;;;4.24;59.68;99553.16;217763;1302;137496;-80
2023/04/03 10:09:31;;;;;;;2.20;1.60;;;;;;;4.35;60.33;99542.86;218924;1302;138433;-79
2023/04/03 10:14:57;;;;;;;2.70;1.20;;;;;;;4.50;59.84;99546.59;219037;1298;138649;-78
2023/04/03 10:20:43;;;;;;;3.10;1.20;;;;;;;4.51;58.79;99554.73;218159;1296;643560;-79
2023/04/03 10:26:23;;;;;;;1.50;1.20;;;;;;;4.40;58.38;99542.73;218637;1297;138107;-79
2023/04/03 10:31:57;;;;;;;1.50;1.30;;;;;;;4.31;58.04;99545.62;219419;1286;138280;-78
2023/04/03 10:37:31;;;;;;;3.10;1.30;;;;;;;4.43;58.36;99553.16;218622;1291;138783;-79
2023/04/03 10:43:24;;;;;;;1.70;1.40;;;;;;;4.59;58.00;99542.55;218615;1298;138351;-79
2023/04/03 10:49:29;;;;;;;6.30;1.70;;;;;;;4.94;59.30;99525.34;219227;1294;138443;-78
2023/04/03 10:55:34;;;;;;;4.00;1.80;;;;;;;5.18;57.59;99528.64;218105;1280;138324;-80
2023/04/03 11:00:56;;;;;;;3.30;2.20;;;;;;;5.02;57.35;99537.60;218212;1296;138267;-81
2023/04/03 11:06:02;;;;;;;2.00;1.40;;;;;;;5.20;56.86;99533.13;218816;1302;138271;-81
2023/04/03 11:11:12;;;;;;;3.20;1.60;;;;;;;5.40;57.52;99532.98;219519;1285;22556;-80
2023/04/03 11:16:23;;;;;;;2.30;1.60;;;;;;;5.49;56.60;99526.43;218903;1287;137354;-80
2023/04/03 11:21:40;;;;;;;2.40;1.60;;;;;;;5.44;56.53;99529.27;218667;1292;137870;-79
2023/04/03 11:26:59;;;;;;;3.00;1.60;;;;;;;5.69;56.65;99520.39;219227;1295;138362;-82
2023/04/03 11:32:31;;;;;;;5.90;1.90;;;;;;;6.01;56.22;99519.39;219115;1301;136934;-80
2023/04/03 11:37:51;;;;;;;2.40;1.60;;;;;;;6.12;55.22;99515.02;218579;1299;138041;-80
2023/04/03 11:43:28;;;;;;;2.70;1.50;;;;;;;5.87;54.18;99520.79;218943;1301;137779;-81
2023/04/03 11:48:56;;;;;;;2.40;1.80;;;;;;;5.97;54.26;99514.48;218482;1299;138227;-79
2023/04/03 11:54:48;;;;;;;1.90;1.50;;;;;;;6.18;54.70;99511.67;218483;1305;137178;-81
2023/04/03 12:00:50;;;;;;;3.30;1.60;;;;;;;6.11;54.47;99505.23;218153;1293;138257;-84
2023/04/03 12:07:06;;;;;;;;;;;;;;;;;;;;;
2023/04/03 12:13:18;;;;;;;5.00;2.10;;;;;;;6.27;53.99;99508.19;216181;1308;137953;-81
2023/04/03 12:18:55;;;;;;;2.80;1.40;;;;;;;6.08;53.82;99512.66;216834;1289;137060;-81
2023/04/03 12:24:15;;;;;;;3.10;2.00;;;;;;;6.07;54.20;99509.73;217201;1302;138235;-78
2023/04/03 12:29:32;;;;;;;1.80;1.40;;;;;;;6.06;53.34;99502.21;217737;1296;23712;-82
2023/04/03 12:35:12;;;;;;;3.90;2.20;;;;;;;5.99;52.41;99501.71;218631;1302;24274;-81
2023/04/03 12:40:52;;;;;;;2.10;1.50;;;;;;;6.19;53.68;99496.03;218420;1301;24783;-76
2023/04/03 12:46:15;;;;;;;4.00;1.60;;;;;;;6.07;53.32;99488.73;218368;1302;137562;-76
2023/04/03 12:51:39;;;;;;;2.20;1.70;;;;;;;5.75;53.47;99492.23;218844;1299;137453;-78
2023/04/03 12:56:43;;;;;;;3.10;1.80;;;;;;;5.91;54.29;99486.21;219488;1302;137965;-77
2023/04/03 13:02:00;;;;;;;2.50;1.50;;;;;;;6.27;54.43;99494.39;220310;1295;138218;-77
2023/04/03 13:07:33;;;;;;;4.50;2.10;;;;;;;6.11;52.46;99496.58;220492;1286;138832;-77
2023/04/03 13:12:55;;;;;;;3.20;1.60;;;;;;;5.87;52.61;99490.77;220846;1295;138444;-78
2023/04/03 13:17:58;;;;;;;2.20;1.60;;;;;;;6.00;52.62;99483.46;220943;1290;137902;-77
2023/04/03 13:23:09;;;;;;;2.50;1.90;;;;;;;6.22;53.13;99492.77;219467;1295;22921;-78
2023/04/03 13:28:23;;;;;;;;;;;;;;;6.16;52.29;99490.20;219600;1295;137167;-75
2023/04/03 13:33:31;;;;;;;2.90;1.50;;;;;;;5.85;51.78;99488.48;220211;1286;124211;-75
2023/04/03 13:38:36;;;;;;;3.10;2.30;;;;;;;5.68;52.30;99491.42;219885;1280;138609;-75
2023/04/03 13:43:38;;;;;;;3.70;1.60;;;;;;;5.93;53.67;99485.95;219244;1295;138988;-76
2023/04/03 13:48:46;;;;;;;2.30;1.80;;;;;;;6.01;52.67;99489.46;219803;1291;138229;-77
2023/04/03 13:54:01;;;;;;;2.90;1.90;;;;;;;5.90;52.06;99489.98;218909;1289;138849;-76
2023/04/03 13:59:35;;;;;;;3.50;2.40;;;;;;;5.61;51.35;99499.02;217980;1295;22668;-75
2023/04/03 14:04:55;;;;;;;4.60;1.90;;;;;;;5.52;51.72;99490.25;217769;1302;25570;-75
2023/04/03 14:09:59;;;;;;;3.10;2.10;;;;;;;5.73;51.93;99482.59;217684;1302;22577;-76
2023/04/03 14:15:17;;;;;;;3.30;1.90;;;;;;;5.72;51.07;99492.81;218521;1293;22620;-76
2023/04/03 14:20:25;;;;;;;2.50;1.60;;;;;;;5.66;51.43;99488.30;218018;1302;22494;-77
2023/04/03 14:25:28;;;;;;;3.70;1.90;;;;;;;5.54;50.37;99493.60;218416;1302;22629;-76
2023/04/03 14:30:35;;;;;;;2.60;1.80;;;;;;;5.48;49.93;99487.50;217797;1302;22507;-76
2023/04/03 14:35:38;;;;;;;4.00;2.10;;;;;;;5.57;50.99;99478.70;217883;1298;22556;-76
2023/04/03 14:40:41;;;;;;;2.30;1.40;;;;;;;5.50;50.84;99486.83;218249;1302;22515;-77
2023/04/03 14:45:44;;;;;;;2.80;1.90;;;;;;;5.37;50.77;99487.50;218353;1302;23511;-77
2023/04/03 14:50:49;;;;;;;4.60;2.50;;;;;;;5.27;51.47;99485.04;218554;1295;22552;-77
2023/04/03 14:56:27;;;;;;;3.30;2.10;;;;;;;5.19;51.85;99501.83;217956;1301;22602;-77
2023/04/03 15:01:40;;;;;;;7.20;3.10;;;;;;;5.01;51.58;99500.14;218184;1302;22580;-77
2023/04/03 15:06:44;;;;;;;6.60;2.60;;;;;;;4.79;51.86;99508.13;218275;1302;22550;-77
2023/04/03 15:11:51;;;;;;;7.50;3.30;;;;;;;4.68;53.16;99503.52;218217;1297;24405;-77
2023/04/03 15:16:54;;;;;;;4.30;2.50;;;;;;;4.68;53.38;99506.50;218820;1299;22622;-77
2023/04/03 15:21:57;;;;;;;4.80;2.30;;;;;;;4.63;52.39;99509.86;218818;1301;24107;-77
2023/04/03 15:27:01;;;;;;;4.00;2.10;;;;;;;4.47;52.03;99509.17;218470;1302;22601;-76
2023/04/03 15:32:04;;;;;;;5.90;2.60;;;;;;;4.35;52.76;99507.45;218139;1299;23664;-77
2023/04/03 15:37:07;;;;;;;3.80;2.10;;;;;;;4.30;53.47;99517.80;220503;1301;22573;-77
2023/04/03 15:42:14;;;;;;;5.30;2.80;;;;;;;4.23;53.66;99514.67;219457;1302;22682;-76
2023/04/03 15:47:16;;;;;;;3.10;2.30;;;;;;;4.19;53.99;99521.85;219127;1299;24273;-76
2023/04/03 15:52:19;;;;;;;4.00;2.10;;;;;;;4.13;54.00;99515.42;218802;1296;22569;-77
2023/04/03 15:57:25;;;;;;;4.40;2.20;;;;;;;4.05;53.77;99521.99;218297;1302;22563;-76
2023/04/03 16:02:28;;;;;;;6.40;2.30;;;;;;;3.96;53.98;99525.72;218412;1302;22570;-76
2023/04/03 16:07:31;;;;;;;4.90;2.80;;;;;;;3.83;53.76;99525.79;218763;1302;24348;-77
2023/04/03 16:12:48;;;;;;;2.80;2.00;;;;;;;3.73;54.18;99526.92;220089;1302;22590;-77
2023/04/03 16:17:53;;;;;;;5.10;2.40;;;;;;;3.67;54.54;99528.17;220200;1302;22483;-77
2023/04/03 16:22:59;;;;;;;3.90;2.60;;;;;;;3.63;54.75;99531.25;220364;1302;23097;-77
2023/04/03 16:28:11;;;;;;;3.50;2.30;;;;;;;3.59;54.50;99541.16;220011;1305;22599;-77
2023/04/03 16:33:13;;;;;;;4.50;2.30;;;;;;;3.52;54.46;99542.91;219623;1305;22687;-77
2023/04/03 16:38:18;;;;;;;3.60;1.90;;;;;;;3.44;54.91;99535.92;219921;1305;24309;-77
2023/04/03 16:43:21;;;;;;;3.50;2.20;;;;;;;3.37;55.12;99541.91;219970;1302;22539;-77
2023/04/03 16:48:28;;;;;;;3.20;2.00;;;;;;;3.29;54.68;99538.89;220768;1298;22638;-77
2023/04/03 16:53:52;;;;;;;3.60;2.40;;;;;;;3.20;54.94;99548.85;220475;1302;22556;-76
2023/04/03 16:58:55;;;;;;;4.40;2.70;;;;;;;3.10;55.30;99548.30;219199;1280;24297;-77
2023/04/03 17:04:08;;;;;;;4.90;2.60;;;;;;;2.97;55.76;99553.46;219252;1302;22553;-75
2023/04/03 17:09:11;;;;;;;3.70;2.80;;;;;;;2.88;56.29;99548.62;218682;1302;24271;-77
2023/04/03 17:14:16;;;;;;;4.20;2.30;;;;;;;2.80;56.44;99556.89;218309;1302;25339;-75
2023/04/03 17:19:39;;;;;;;3.30;2.10;;;;;;;2.74;56.65;99559.95;217427;1302;24257;-75
2023/04/03 17:24:41;;;;;;;4.00;2.60;;;;;;;2.68;56.82;99565.86;220111;1302;23586;-77
2023/04/03 17:29:50;;;;;;;3.80;2.90;;;;;;;2.61;57.10;99568.80;220479;1302;23797;-77
2023/04/03 17:34:53;;;;;;;3.90;2.20;;;;;;;2.57;57.19;99570.72;220341;1299;22592;-77
2023/04/03 17:40:06;;;;;;;3.80;2.40;;;;;;;2.53;57.25;99576.98;219757;1302;24270;-75
2023/04/03 17:45:10;;;;;;;4.30;2.40;;;;;;;2.48;57.29;99584.11;217916;1302;22546;-76
2023/04/03 17:50:15;;;;;;;3.70;2.40;;;;;;;2.41;57.48;99589.45;218500;1296;22590;-76
2023/04/03 17:55:17;;;;;;;5.50;3.20;;;;;;;2.36;57.28;99585.91;220216;1299;22696;-77
2023/04/03 18:00:20;;;;;;;5.60;2.90;;;;;;;2.31;57.55;99590.40;220050;1299;23749;-77
2023/04/03 18:05:28;;;;;;;4.90;3.40;;;;;;;2.29;57.78;99591.81;220334;1299;22575;-77
2023/04/03 18:10:30;;;;;;;3.90;2.80;;;;;;;2.27;57.98;99592.80;220204;1302;25375;-77
2023/04/03 18:15:52;;;;;;;6.60;3.40;;;;;;;2.26;58.15;99594.66;219473;1303;25319;-76
2023/04/03 18:20:55;;;;;;;6.70;3.90;;;;;;;2.22;58.23;99598.39;219332;1303;22552;-77
2023/04/03 18:26:17;;;;;;;6.90;3.90;;;;;;;2.21;58.31;99602.38;219747;1299;24384;-77
2023/04/03 18:31:26;;;;;;;7.30;3.90;;;;;;;2.18;58.53;99603.22;219283;1306;22711;-75
2023/04/03 18:36:28;;;;;;;5.70;3.30;;;;;;;2.18;58.86;99601.89;218899;1302;22566;-76
2023/04/03 18:41:34;;;;;;;3.50;3.20;;;;;;;2.15;58.64;99600.31;217441;1305;22691;-76
2023/04/03 18:46:58;;;;;;;6.60;3.10;;;;;;;2.12;58.84;99604.87;218745;1308;24449;-77
2023/04/03 18:52:01;;;;;;;6.50;4.10;;;;;;;2.09;58.92;99608.05;218568;1308;25245;-76
2023/04/03 18:57:04;;;;;;;6.00;3.10;;;;;;;2.07;59.12;99613.44;219720;1305;22859;-76
2023/04/03 19:02:07;;;;;;;5.00;3.50;;;;;;;2.04;59.05;99608.44;220103;1302;22769;-76
2023/04/03 19:07:10;;;;;;;4.50;3.50;;;;;;;2.01;59.44;99606.08;219968;1302;25513;-77
2023/04/03 19:12:12;;;;;;;5.60;3.60;;;;;;;1.97;59.58;99606.21;219716;1305;25267;-77
2023/04/03 19:17:14;;;;;;;6.60;4.40;;;;;;;1.93;59.75;99594.29;219877;1302;22602;-77
2023/04/03 19:22:18;;;;;;;6.40;3.60;;;;;;;1.89;59.91;99593.96;220145;1302;26625;-76
2023/04/03 19:27:20;;;;;;;6.50;3.50;;;;;;;1.83;60.23;99600.82;220163;1298;22999;-76
2023/04/03 19:32:42;;;;;;;6.70;4.20;;;;;;;1.77;60.58;99600.39;220651;1299;22556;-77
2023/04/03 19:38:04;;;;;;;6.30;3.80;;;;;;;1.73;61.03;99596.33;220737;1296;22481;-76
2023/04/03 19:43:08;;;;;;;9.40;4.30;;;;;;;1.70;61.12;99600.02;220842;1280;22565;-76
2023/04/03 19:48:11;;;;;;;7.50;4.60;;;;;;;1.66;61.42;99601.02;220907;1302;22686;-77
2023/04/03 19:53:18;;;;;;;6.90;4.30;;;;;;;1.63;61.83;99604.38;220255;1301;24284;-76
2023/04/03 19:58:22;;;;;;;9.20;5.20;;;;;;;1.61;62.11;99599.31;220638;1302;22494;-76
2023/04/03 20:03:27;;;;;;;7.70;4.50;;;;;;;1.60;62.58;99603.01;220586;1298;22597;-78
2023/04/03 20:08:38;;;;;;;6.90;4.30;;;;;;;1.59;62.63;99596.70;220697;1301;22565;-77
2023/04/03 20:13:41;;;;;;;8.30;4.30;;;;;;;1.55;62.89;99601.14;220655;1302;22696;-76
2023/04/03 20:18:44;;;;;;;8.80;5.30;;;;;;;1.48;62.93;99591.95;220744;1302;22561;-77
2023/04/03 20:23:50;;;;;;;8.30;4.20;;;;;;;1.40;63.29;99599.97;220871;1302;22697;-76
2023/04/03 20:28:55;;;;;;;8.00;4.00;;;;;;;1.32;63.68;99592.73;220739;1301;22559;-77
2023/04/03 20:33:58;;;;;;;9.30;5.70;;;;;;;1.27;63.69;99594.67;220724;1302;22662;-76
2023/04/03 20:39:01;;;;;;;8.80;4.50;;;;;;;1.22;63.65;99592.40;220776;1302;23242;-77
2023/04/03 20:44:05;;;;;;;8.00;4.70;;;;;;;1.15;64.14;99593.08;220928;1286;22739;-77
2023/04/03 20:49:08;;;;;;;12.40;6.00;;;;;;;1.05;64.78;99592.88;220980;1302;24305;-76
2023/04/03 20:54:17;;;;;;;10.00;5.80;;;;;;;0.97;64.77;99598.54;220406;1302;22790;-76
2023/04/03 20:59:32;;;;;;;;;;;;;;;0.92;65.03;99605.80;220613;1301;22543;-76
2023/04/03 21:04:44;;;;;;;13.20;7.30;;;;;;;0.90;65.24;99615.45;220903;1302;22546;-76
2023/04/03 21:10:34;;;;;;;;;;;;;;;;;;;;;
2023/04/03 21:15:48;;;;;;;11.40;6.20;;;;;;;0.92;65.69;99622.76;218719;1302;26651;-76
2023/04/03 21:21:25;;;;;;;11.20;5.90;;;;;;;0.90;65.87;99624.62;218253;1302;22553;-76
2023/04/03 21:26:28;;;;;;;11.30;5.60;;;;;;;0.86;66.33;99628.39;217874;1302;24537;-76
2023/04/03 21:31:55;;;;;;;9.00;5.60;;;;;;;0.83;66.17;99627.92;217915;1305;22641;-76
2023/04/03 21:37:07;;;;;;;10.00;5.90;;;;;;;0.76;66.20;99622.67;217966;1305;24417;-76
2023/04/03 21:42:10;;;;;;;11.90;6.40;;;;;;;0.67;66.62;99627.48;218030;1302;22684;-76
2023/04/03 21:47:18;;;;;;;10.80;5.80;;;;;;;0.55;66.90;99618.56;218333;1302;22569;-76
2023/04/03 21:52:24;;;;;;;9.00;5.40;;;;;;;0.47;66.76;99621.23;218483;1302;22576;-76
2023/04/03 21:57:28;;;;;;;11.10;5.50;;;;;;;0.39;66.89;99616.56;218529;1302;23192;-76
2023/04/03 22:02:50;;;;;;;9.80;6.40;;;;;;;0.37;67.29;99614.63;218904;1302;22704;-77
2023/04/03 22:08:10;;;;;;;10.40;5.90;;;;;;;0.36;67.32;99618.50;219065;1296;22896;-75
2023/04/03 22:13:12;;;;;;;9.20;5.40;;;;;;;0.34;67.89;99613.42;218641;1302;24015;-76
2023/04/03 22:18:14;;;;;;;7.50;4.80;;;;;;;0.33;67.84;99610.73;218673;1302;25445;-76
2023/04/03 22:23:18;;;;;;;7.80;4.90;;;;;;;0.31;67.95;99601.65;219017;1296;202420;-76
2023/04/03 22:28:21;;;;;;;8.00;4.40;;;;;;;0.30;68.06;99597.59;218773;1302;24447;-76
2023/04/03 22:33:24;;;;;;;7.30;4.90;;;;;;;0.28;67.99;99595.83;218736;1302;22507;-76
2023/04/03 22:38:27;;;;;;;7.40;4.60;;;;;;;0.25;68.09;99591.66;218900;1302;22508;-76
2023/04/03 22:43:31;;;;;;;7.50;4.50;;;;;;;0.24;68.39;99597.49;218701;1301;23822;-76
2023/04/03 22:48:39;;;;;;;6.90;4.10;;;;;;;0.22;68.65;99597.45;218158;1301;25337;-75
2023/04/03 22:53:42;;;;;;;9.80;5.10;;;;;;;0.19;68.72;99588.11;218534;1302;22556;-76
2023/04/03 22:58:46;;;;;;;8.10;4.70;;;;;;;0.18;68.82;99579.52;218679;1302;24322;-76
2023/04/03 23:03:50;;;;;;;9.80;5.50;;;;;;;0.17;68.74;99568.84;218571;1299;22596;-76
2023/04/03 23:08:53;;;;;;;6.40;4.10;;;;;;;0.16;69.00;99566.79;218862;1296;22649;-75
2023/04/03 23:13:59;;;;;;;7.90;4.30;;;;;;;0.16;69.25;99558.55;218896;1302;22549;-76
2023/04/03 23:19:01;;;;;;;7.40;4.50;;;;;;;0.14;69.23;99550.90;218682;1302;25454;-76
2023/04/03 23:24:14;;;;;;;6.40;3.90;;;;;;;0.09;69.32;99543.45;218302;1299;24262;-75
2023/04/03 23:29:17;;;;;;;6.80;4.10;;;;;;;0.01;69.44;99544.64;218360;1302;23967;-75
2023/04/03 23:34:23;;;;;;;9.10;4.60;;;;;;;-0.07;69.75;99539.80;218222;1302;22639;-76
2023/04/03 23:39:26;;;;;;;6.60;4.00;;;;;;;-0.14;69.89;99532.27;218601;1301;22640;-76
2023/04/03 23:44:30;;;;;;;9.40;4.50;;;;;;;-0.19;69.95;99535.26;218610;1302;23019;-76
2023/04/03 23:49:35;;;;;;;7.70;4.80;;;;;;;-0.24;70.09;99527.64;218609;1302;22569;-76
2023/04/03 23:54:38;;;;;;;8.30;4.70;;;;;;;-0.30;70.13;99526.13;218797;1299;22637;-76
2023/04/03 23:59:41;;;;;;;8.10;4.70;;;;;;;-0.38;70.49;99515.88;218335;1302;22596;-76
